Time;durP1;ratioP1;P1;durP2;ratioP2;P2;SDS_P1;SDS_P2;PMS_P1;PMS_P2;Temp;Humidity;BMP_temperature;BMP_pressure;BME280_temperature;BME280_humidity;BME280_pressure;Samples;Min_cycle;Max_cycle;Signal;HPM_P1;HPM_P2
2023/09/06 00:02:12;;;;;;;7.43;5.97;;;11.80;99.90;;;;;;5099827;28;20023;-61
2023/09/06 00:04:38;;;;;;;7.82;6.18;;;11.80;99.90;;;;;;5118225;28;20076;-61
2023/09/06 00:07:03;;;;;;;7.03;5.50;;;11.80;99.90;;;;;;5118137;28;20055;-62
2023/09/06 00:09:29;;;;;;;6.10;5.32;;;11.80;99.90;;;;;;5099996;28;20440;-62
2023/09/06 00:11:55;;;;;;;9.10;5.90;;;11.70;99.90;;;;;;5118068;28;20453;-61
2023/09/06 00:14:21;;;;;;;9.57;6.63;;;11.70;99.90;;;;;;5117978;28;20041;-61
2023/09/06 00:16:46;;;;;;;10.73;6.00;;;11.70;99.90;;;;;;5117650;28;20022;-61
2023/09/06 00:19:14;;;;;;;8.25;5.80;;;11.70;99.90;;;;;;5118151;28;20034;-61
2023/09/06 00:21:42;;;;;;;9.48;6.05;;;11.70;99.90;;;;;;5118199;28;20027;-62
2023/09/06 00:24:10;;;;;;;9.52;5.60;;;11.60;99.90;;;;;;5117837;28;20043;-61
2023/09/06 00:26:36;;;;;;;7.63;5.63;;;11.60;99.90;;;;;;5099587;28;20520;-61
2023/09/06 00:29:01;;;;;;;8.40;5.85;;;11.60;99.90;;;;;;5118284;28;20103;-61
2023/09/06 00:31:28;;;;;;;14.82;6.43;;;11.60;99.90;;;;;;5118625;28;20047;-66
2023/09/06 00:33:54;;;;;;;9.05;6.30;;;11.60;99.90;;;;;;5099742;28;20020;-61
2023/09/06 00:36:20;;;;;;;11.70;6.15;;;11.60;99.90;;;;;;5099633;28;20031;-61
2023/09/06 00:38:45;;;;;;;6.70;5.63;;;11.60;99.90;;;;;;5099380;28;20056;-61
2023/09/06 00:41:11;;;;;;;6.35;5.63;;;11.50;99.90;;;;;;5099334;28;20016;-61
2023/09/06 00:43:36;;;;;;;7.78;6.00;;;11.50;99.90;;;;;;5099281;28;20160;-61
2023/09/06 00:46:07;;;;;;;8.88;6.35;;;11.50;99.90;;;;;;5099237;28;20413;-61
2023/09/06 00:48:34;;;;;;;6.72;5.28;;;11.50;99.90;;;;;;5117540;28;20034;-61
2023/09/06 00:51:00;;;;;;;8.48;5.85;;;11.40;99.90;;;;;;5095710;28;20366;-62
2023/09/06 00:53:26;;;;;;;8.77;6.38;;;11.40;99.90;;;;;;5096676;28;20021;-62
2023/09/06 00:55:52;;;;;;;9.80;5.65;;;11.40;99.90;;;;;;5097181;28;20020;-61
2023/09/06 00:58:20;;;;;;;10.98;6.20;;;11.30;99.90;;;;;;5096988;28;20056;-62
2023/09/06 01:00:47;;;;;;;7.70;5.63;;;11.40;99.90;;;;;;5095792;28;20091;-61
2023/09/06 01:03:13;;;;;;;8.23;6.57;;;11.30;99.90;;;;;;5096711;28;20038;-61
2023/09/06 01:06:03;;;;;;;6.25;5.45;;;11.30;99.90;;;;;;5096438;28;20454;-61
2023/09/06 01:08:37;;;;;;;7.15;5.72;;;11.30;99.90;;;;;;5095484;28;20024;-61
2023/09/06 01:11:18;;;;;;;10.48;5.85;;;11.30;99.90;;;;;;5096844;28;20028;-61
2023/09/06 01:13:48;;;;;;;8.32;5.65;;;11.30;99.90;;;;;;5095183;28;20082;-61
2023/09/06 01:16:20;;;;;;;7.93;5.68;;;11.40;99.90;;;;;;5095283;28;20024;-61
2023/09/06 01:18:45;;;;;;;7.40;5.90;;;11.40;99.90;;;;;;5095589;28;20402;-61
2023/09/06 01:21:16;;;;;;;6.68;5.25;;;11.40;99.90;;;;;;5095159;28;20082;-61
2023/09/06 01:23:42;;;;;;;10.35;6.63;;;11.40;99.90;;;;;;5095649;28;20031;-61
2023/09/06 01:26:08;;;;;;;7.65;5.97;;;11.40;99.90;;;;;;5095139;28;20020;-61
2023/09/06 01:28:34;;;;;;;8.50;5.95;;;11.40;99.90;;;;;;5094979;28;20443;-62
2023/09/06 01:31:01;;;;;;;8.40;5.90;;;11.40;99.90;;;;;;5096357;28;20023;-61
2023/09/06 01:33:28;;;;;;;7.95;6.13;;;11.40;99.90;;;;;;5096119;28;20453;-61
2023/09/06 01:35:54;;;;;;;7.72;6.03;;;11.40;99.90;;;;;;5096042;28;20024;-61
2023/09/06 01:38:20;;;;;;;7.20;5.72;;;11.40;99.90;;;;;;5094620;28;20077;-61
2023/09/06 01:40:46;;;;;;;7.68;5.82;;;11.40;99.90;;;;;;5095013;28;20020;-61
2023/09/06 01:43:13;;;;;;;6.53;5.38;;;11.40;99.90;;;;;;5095911;28;20024;-61
2023/09/06 01:45:48;;;;;;;7.47;5.65;;;11.40;99.90;;;;;;5095867;28;20016;-61
2023/09/06 01:48:13;;;;;;;7.35;5.78;;;11.40;99.90;;;;;;5094581;28;20118;-61
2023/09/06 01:50:41;;;;;;;10.23;5.95;;;11.40;99.90;;;;;;5097741;28;20048;-61
2023/09/06 01:53:07;;;;;;;11.60;6.13;;;11.40;99.90;;;;;;5116460;28;20015;-61
2023/09/06 01:55:32;;;;;;;10.27;5.95;;;11.40;99.90;;;;;;5115801;28;20033;-61
2023/09/06 01:57:58;;;;;;;7.78;6.40;;;11.40;99.90;;;;;;5097872;28;20111;-61
2023/09/06 02:00:27;;;;;;;8.43;6.60;;;11.40;99.90;;;;;;5116206;28;20020;-61
2023/09/06 02:02:55;;;;;;;8.38;6.03;;;11.30;99.90;;;;;;5116167;28;20019;-61
2023/09/06 02:05:22;;;;;;;9.55;5.82;;;11.20;99.90;;;;;;5116005;28;20027;-61
2023/09/06 02:07:47;;;;;;;11.90;6.13;;;11.20;99.90;;;;;;5115875;28;20041;-61
2023/09/06 02:10:13;;;;;;;7.15;5.45;;;11.20;99.90;;;;;;5115729;28;20027;-61
2023/09/06 02:12:39;;;;;;;8.38;5.88;;;11.20;99.90;;;;;;5115609;28;20024;-61
2023/09/06 02:15:07;;;;;;;7.43;6.47;;;11.20;99.90;;;;;;5115694;28;20023;-61
2023/09/06 02:17:33;;;;;;;8.38;6.25;;;11.20;99.90;;;;;;5115648;28;20043;-61
2023/09/06 02:20:19;;;;;;;7.05;5.95;;;11.10;99.90;;;;;;5115462;28;20122;-61
2023/09/06 02:22:52;;;;;;;7.95;5.68;;;11.10;99.90;;;;;;5115513;28;20020;-61
2023/09/06 02:25:23;;;;;;;9.75;5.93;;;11.10;99.90;;;;;;5115155;28;20024;-61
2023/09/06 02:27:49;;;;;;;8.63;6.13;;;11.10;99.90;;;;;;5115472;28;20094;-61
2023/09/06 02:30:15;;;;;;;10.95;6.53;;;11.10;99.90;;;;;;5115318;28;20034;-61
2023/09/06 02:32:40;;;;;;;6.50;5.65;;;11.10;99.90;;;;;;5115384;28;20028;-61
2023/09/06 02:35:07;;;;;;;7.72;5.53;;;11.10;99.90;;;;;;5115301;28;20023;-61
2023/09/06 02:37:36;;;;;;;11.18;6.22;;;11.10;99.90;;;;;;5115393;28;20030;-61
2023/09/06 02:40:17;;;;;;;7.60;5.38;;;11.10;99.90;;;;;;5115122;28;20059;-61
2023/09/06 02:42:44;;;;;;;13.65;5.95;;;11.10;99.90;;;;;;5115236;28;20023;-61
2023/09/06 02:45:11;;;;;;;8.73;5.38;;;11.10;99.90;;;;;;5115096;28;20051;-61
2023/09/06 02:47:39;;;;;;;8.23;5.80;;;11.10;99.90;;;;;;5115466;28;20028;-61
2023/09/06 02:50:06;;;;;;;6.60;5.20;;;11.00;99.90;;;;;;5114740;28;20454;-61
2023/09/06 02:52:35;;;;;;;7.85;5.43;;;11.00;99.90;;;;;;5115329;28;20047;-61
2023/09/06 02:55:04;;;;;;;6.90;5.45;;;;;;;;;;5114897;28;20019;-61
2023/09/06 02:57:31;;;;;;;;;;;11.00;99.90;;;;;;5097090;28;20377;-61
2023/09/06 02:59:56;;;;;;;7.10;5.05;;;11.00;99.90;;;;;;5115140;28;19960;-62
2023/09/06 03:02:22;;;;;;;7.70;5.55;;;11.00;99.90;;;;;;5097156;28;20023;-61
2023/09/06 03:04:54;;;;;;;7.38;5.53;;;11.10;99.90;;;;;;5096605;28;20026;-61
2023/09/06 03:07:21;;;;;;;7.13;5.63;;;11.10;99.90;;;;;;5115450;28;20023;-61
2023/09/06 03:09:48;;;;;;;7.05;5.82;;;11.10;99.90;;;;;;5114830;28;20085;-62
2023/09/06 03:12:16;;;;;;;8.13;6.85;;;11.10;99.90;;;;;;5096178;28;20170;-62
2023/09/06 03:14:44;;;;;;;8.70;5.82;;;11.10;99.90;;;;;;5114657;28;20024;-62
2023/09/06 03:17:18;;;;;;;5.90;5.35;;;11.00;99.90;;;;;;5115244;28;20034;-61
2023/09/06 03:19:53;;;;;;;11.82;6.03;;;11.00;99.90;;;;;;5114776;28;20034;-62
2023/09/06 03:22:20;;;;;;;6.43;5.40;;;11.00;99.90;;;;;;5096487;28;20016;-62
2023/09/06 03:24:45;;;;;;;8.90;5.78;;;11.00;99.90;;;;;;5095815;28;20027;-61
2023/09/06 03:27:16;;;;;;;9.75;5.60;;;11.00;99.90;;;;;;5096014;28;20019;-62
2023/09/06 03:29:43;;;;;;;6.32;5.63;;;11.00;99.90;;;;;;5096359;28;20090;-62
2023/09/06 03:32:09;;;;;;;7.05;5.63;;;10.90;99.90;;;;;;5115485;28;20098;-63
2023/09/06 03:34:40;;;;;;;6.68;5.97;;;11.00;99.90;;;;;;5117018;28;20482;-62
2023/09/06 03:37:08;;;;;;;7.35;5.85;;;10.90;99.90;;;;;;5098796;28;20019;-63
2023/09/06 03:39:41;;;;;;;7.75;5.55;;;10.90;99.90;;;;;;5116795;28;20024;-62
2023/09/06 03:42:10;;;;;;;9.15;5.85;;;10.90;99.90;;;;;;5097918;28;20023;-65
2023/09/06 03:44:37;;;;;;;7.22;5.90;;;10.80;99.90;;;;;;5114546;28;20020;-62
2023/09/06 03:47:13;;;;;;;12.65;5.82;;;10.90;99.90;;;;;;5114139;28;20053;-61
2023/09/06 03:49:40;;;;;;;12.35;5.95;;;10.90;99.90;;;;;;5096002;28;20024;-62
2023/09/06 03:52:07;;;;;;;7.75;5.82;;;10.90;99.90;;;;;;5113628;28;20062;-61
2023/09/06 03:54:34;;;;;;;9.23;5.97;;;10.90;99.90;;;;;;5114145;28;20019;-61
2023/09/06 03:57:07;;;;;;;9.32;5.75;;;10.90;99.90;;;;;;5114163;28;20015;-61
2023/09/06 03:59:35;;;;;;;8.43;5.95;;;10.90;99.90;;;;;;5114099;28;20035;-62
2023/09/06 04:02:13;;;;;;;12.15;6.60;;;10.90;99.90;;;;;;5114246;28;20016;-62
2023/09/06 04:04:38;;;;;;;8.85;5.93;;;10.90;99.90;;;;;;5114436;28;20076;-62
2023/09/06 04:07:07;;;;;;;8.90;6.65;;;10.90;99.90;;;;;;5095983;28;20020;-61
2023/09/06 04:09:37;;;;;;;9.13;6.05;;;10.90;99.90;;;;;;5114379;28;20054;-62
2023/09/06 04:12:05;;;;;;;8.75;5.85;;;10.80;99.90;;;;;;5114060;28;20024;-61
2023/09/06 04:14:35;;;;;;;9.52;6.15;;;10.80;99.90;;;;;;5113975;28;20334;-61
2023/09/06 04:17:01;;;;;;;;;;;10.80;99.90;;;;;;5096052;28;20365;-62
2023/09/06 04:19:26;;;;;;;8.38;5.97;;;10.80;99.90;;;;;;5095866;28;19908;-61
2023/09/06 04:21:52;;;;;;;7.75;5.60;;;10.80;99.90;;;;;;5114375;28;20483;-61
2023/09/06 04:24:19;;;;;;;9.82;5.82;;;10.80;99.90;;;;;;5113897;28;20059;-61
2023/09/06 04:26:44;;;;;;;9.43;6.13;;;10.80;99.90;;;;;;5113902;28;20012;-61
2023/09/06 04:29:10;;;;;;;7.40;6.40;;;10.80;99.90;;;;;;5113864;28;20500;-61
2023/09/06 04:31:36;;;;;;;8.00;6.00;;;10.80;99.90;;;;;;5113647;28;20028;-57
2023/09/06 04:34:04;;;;;;;8.38;6.68;;;10.90;99.90;;;;;;5095763;28;20019;-57
2023/09/06 04:36:29;;;;;;;13.93;6.97;;;10.90;99.90;;;;;;5114787;28;20082;-57
2023/09/06 04:38:56;;;;;;;10.95;7.45;;;10.90;99.90;;;;;;5099152;28;20480;-57
2023/09/06 04:41:22;;;;;;;9.82;6.65;;;11.00;99.90;;;;;;5099169;28;20020;-57
2023/09/06 04:43:47;;;;;;;9.60;6.97;;;11.10;99.90;;;;;;5099019;28;20069;-61
2023/09/06 04:46:13;;;;;;;8.05;6.75;;;11.10;99.90;;;;;;5098874;28;20023;-61
2023/09/06 04:48:39;;;;;;;8.57;6.90;;;11.20;99.90;;;;;;5117393;28;20068;-61
2023/09/06 04:51:05;;;;;;;8.05;6.00;;;11.20;99.90;;;;;;5098441;28;20040;-61
2023/09/06 04:53:30;;;;;;;9.40;6.30;;;11.20;99.90;;;;;;5117269;28;20372;-61
2023/09/06 04:55:56;;;;;;;12.60;6.50;;;11.30;99.90;;;;;;5117472;28;20036;-62
2023/09/06 04:58:22;;;;;;;8.65;6.15;;;11.30;99.90;;;;;;5117188;28;20467;-61
2023/09/06 05:00:48;;;;;;;8.40;6.78;;;11.30;99.90;;;;;;5117204;28;20121;-61
2023/09/06 05:03:17;;;;;;;12.07;7.13;;;11.30;99.90;;;;;;5098536;28;20027;-61
2023/09/06 05:05:45;;;;;;;9.43;6.68;;;11.30;99.90;;;;;;5098793;28;20038;-61
2023/09/06 05:08:10;;;;;;;7.95;6.78;;;11.30;99.90;;;;;;5116906;28;20097;-62
2023/09/06 05:10:36;;;;;;;10.98;7.47;;;11.40;99.90;;;;;;5116638;28;20051;-61
2023/09/06 05:13:05;;;;;;;10.98;7.18;;;11.40;99.90;;;;;;5116822;28;20028;-62
2023/09/06 05:15:31;;;;;;;10.40;7.32;;;11.50;99.90;;;;;;5117267;28;20024;-62
2023/09/06 05:17:56;;;;;;;13.55;7.57;;;11.60;99.90;;;;;;5116408;28;20107;-62
2023/09/06 05:20:28;;;;;;;12.52;7.50;;;11.70;99.90;;;;;;5116732;28;20032;-62
2023/09/06 05:22:55;;;;;;;10.55;7.63;;;11.80;99.90;;;;;;5116733;28;20051;-67
2023/09/06 05:25:21;;;;;;;8.88;6.68;;;11.90;99.90;;;;;;5116495;28;20019;-62
2023/09/06 05:27:47;;;;;;;10.73;6.95;;;12.10;99.90;;;;;;5098391;28;20088;-62
2023/09/06 05:30:14;;;;;;;13.75;7.55;;;12.30;99.90;;;;;;5116454;28;20189;-62
2023/09/06 05:32:39;;;;;;;11.25;8.55;;;12.40;99.90;;;;;;5116417;28;20016;-62
2023/09/06 05:35:05;;;;;;;11.95;7.70;;;12.60;99.90;;;;;;5098039;28;20031;-62
2023/09/06 05:37:31;;;;;;;16.83;7.90;;;12.90;99.90;;;;;;5116078;28;20040;-62
2023/09/06 05:39:57;;;;;;;13.25;8.00;;;13.10;99.90;;;;;;5115882;28;20031;-62
2023/09/06 05:42:22;;;;;;;13.88;8.00;;;13.40;99.90;;;;;;5116425;28;20361;-62
2023/09/06 05:44:48;;;;;;;10.98;7.68;;;13.60;99.90;;;;;;5116127;28;20027;-62
2023/09/06 05:47:13;;;;;;;13.85;7.07;;;13.90;99.90;;;;;;5115701;28;20023;-62
2023/09/06 05:49:40;;;;;;;13.90;7.57;;;14.20;99.90;;;;;;5116003;28;20448;-62
2023/09/06 05:52:06;;;;;;;18.50;8.57;;;14.50;99.90;;;;;;5115821;28;20051;-62
2023/09/06 05:54:32;;;;;;;14.68;6.68;;;14.80;99.90;;;;;;5097249;28;20015;-62
2023/09/06 05:56:57;;;;;;;12.02;8.65;;;15.10;99.90;;;;;;5115621;28;20103;-62
2023/09/06 05:59:23;;;;;;;11.15;6.65;;;15.40;99.90;;;;;;5115679;28;20031;-62
2023/09/06 06:01:49;;;;;;;8.60;6.68;;;15.70;99.90;;;;;;5115870;28;20023;-62
2023/09/06 06:04:15;;;;;;;13.65;6.10;;;16.00;99.90;;;;;;5097567;28;20031;-62
2023/09/06 06:06:43;;;;;;;9.10;6.18;;;16.30;99.90;;;;;;5115563;28;20058;-62
2023/09/06 06:09:15;;;;;;;9.30;6.65;;;16.50;99.90;;;;;;5115541;28;20051;-62
2023/09/06 06:11:40;;;;;;;10.30;5.82;;;16.90;99.90;;;;;;5115571;28;20038;-62
2023/09/06 06:14:06;;;;;;;11.30;5.82;;;17.30;99.90;;;;;;5115623;28;20021;-62
2023/09/06 06:16:32;;;;;;;12.45;6.13;;;17.80;99.90;;;;;;5116069;28;20030;-62
2023/09/06 06:18:58;;;;;;;11.75;7.00;;;18.20;99.90;;;;;;5097394;28;20050;-63
2023/09/06 06:21:26;;;;;;;9.00;5.43;;;18.60;99.90;;;;;;5097642;28;20448;-62
2023/09/06 06:23:51;;;;;;;11.90;5.45;;;19.00;99.90;;;;;;5097589;28;20436;-63
2023/09/06 06:26:19;;;;;;;10.77;6.50;;;19.40;99.90;;;;;;5097388;28;20051;-63
2023/09/06 06:28:45;;;;;;;14.40;7.82;;;19.70;99.90;;;;;;5115767;28;20026;-63
2023/09/06 06:31:12;;;;;;;16.20;6.90;;;20.10;99.90;;;;;;5115123;28;20027;-63
2023/09/06 06:33:38;;;;;;;8.88;6.28;;;20.50;99.90;;;;;;5115344;28;20110;-63
2023/09/06 06:36:05;;;;;;;16.73;6.45;;;20.80;99.90;;;;;;5115475;28;20019;-63
2023/09/06 06:38:31;;;;;;;11.02;6.45;;;21.20;99.90;;;;;;5115072;28;20055;-63
2023/09/06 06:40:57;;;;;;;11.90;6.22;;;21.40;99.90;;;;;;5114856;28;20407;-63
2023/09/06 06:46:37;;;;;;;10.38;6.95;;;22.00;99.10;;;;;;5115442;28;20065;-63
2023/09/06 06:49:07;;;;;;;9.60;6.22;;;22.30;98.40;;;;;;5115123;28;20102;-63
2023/09/06 06:51:40;;;;;;;11.88;5.97;;;22.50;97.40;;;;;;5115271;28;20377;-63
2023/09/06 06:54:10;;;;;;;10.45;6.15;;;22.70;96.60;;;;;;5096715;28;20043;-63
2023/09/06 06:56:37;;;;;;;15.07;6.93;;;23.30;95.80;;;;;;5114749;28;20016;-63
2023/09/06 06:59:03;;;;;;;13.27;7.03;;;23.40;94.80;;;;;;5095815;28;20031;-63
2023/09/06 07:01:30;;;;;;;11.15;6.40;;;23.60;94.00;;;;;;5096679;28;20077;-63
2023/09/06 07:04:00;;;;;;;9.93;5.78;;;23.80;93.30;;;;;;5114668;28;20011;-63
2023/09/06 07:06:26;;;;;;;60.10;11.32;;;23.80;92.90;;;;;;5114565;28;20094;-63
2023/09/06 07:08:53;;;;;;;16.15;6.35;;;24.00;92.10;;;;;;5096776;28;20054;-61
2023/09/06 07:11:19;;;;;;;10.77;5.88;;;24.30;91.70;;;;;;5114972;28;20073;-61
2023/09/06 07:13:46;;;;;;;13.93;5.72;;;24.40;91.10;;;;;;5114900;28;20103;-62
2023/09/06 07:16:12;;;;;;;11.80;5.53;;;24.60;90.70;;;;;;5115076;28;20035;-61
2023/09/06 07:18:38;;;;;;;12.18;6.18;;;24.90;89.40;;;;;;5115457;28;20031;-62
2023/09/06 07:21:04;;;;;;;12.77;5.78;;;25.10;87.80;;;;;;5105175;28;20066;-65
2023/09/06 07:23:29;;;;;;;10.68;5.03;;;25.20;87.10;;;;;;5102228;28;20020;-62
2023/09/06 07:25:55;;;;;;;10.73;5.43;;;25.30;87.00;;;;;;5102118;28;20015;-64
2023/09/06 07:28:24;;;;;;;7.10;5.35;;;25.40;85.50;;;;;;5116661;28;20034;-64
2023/09/06 07:30:49;;;;;;;;;;;25.60;85.10;;;;;;5115326;28;20023;-62
2023/09/06 07:33:16;;;;;;;5.32;3.53;;;25.70;81.80;;;;;;5115843;28;19899;-62
2023/09/06 07:35:44;;;;;;;11.15;4.45;;;25.70;82.20;;;;;;5116472;28;20023;-62
2023/09/06 07:38:10;;;;;;;17.55;4.20;;;25.90;81.70;;;;;;5115850;28;20016;-62
2023/09/06 07:40:35;;;;;;;4.10;3.75;;;25.90;80.40;;;;;;5115824;28;20068;-61
2023/09/06 07:43:01;;;;;;;5.05;4.30;;;25.40;79.80;;;;;;5115156;28;20023;-62
2023/09/06 07:45:27;;;;;;;8.32;4.50;;;25.40;80.60;;;;;;5115091;28;20020;-63
2023/09/06 07:47:53;;;;;;;7.35;4.43;;;25.70;80.60;;;;;;5096130;28;20468;-63
2023/09/06 07:50:18;;;;;;;5.57;3.95;;;26.20;78.70;;;;;;5114330;28;20390;-64
2023/09/06 07:52:45;;;;;;;5.70;4.03;;;26.30;78.20;;;;;;5114626;28;20189;-67
2023/09/06 07:55:13;;;;;;;6.10;3.60;;;26.70;76.80;;;;;;5114331;28;20020;-64
2023/09/06 07:57:38;;;;;;;11.35;4.65;;;26.70;74.50;;;;;;5096035;28;20072;-64
2023/09/06 08:00:05;;;;;;;5.05;3.58;;;26.80;74.40;;;;;;5114441;28;20107;-64
2023/09/06 08:02:31;;;;;;;5.78;4.10;;;26.60;73.80;;;;;;5114426;28;20022;-64
2023/09/06 08:04:57;;;;;;;4.20;3.28;;;26.50;73.80;;;;;;5114952;28;20031;-64
2023/09/06 08:07:23;;;;;;;7.43;3.58;;;26.60;73.90;;;;;;5095944;28;20354;-64
2023/09/06 08:09:49;;;;;;;6.60;3.72;;;27.00;73.30;;;;;;5096219;28;20035;-64
2023/09/06 08:12:15;;;;;;;4.93;3.53;;;27.40;71.30;;;;;;5099695;28;20527;-64
2023/09/06 08:14:42;;;;;;;9.38;5.10;;;27.70;70.40;;;;;;5118367;28;20024;-64
2023/09/06 08:17:08;;;;;;;5.15;3.95;;;27.50;70.00;;;;;;5100805;28;20107;-64
2023/09/06 08:19:34;;;;;;;5.63;3.50;;;27.50;69.60;;;;;;5118071;28;20039;-64
2023/09/06 08:21:59;;;;;;;6.53;3.80;;;28.00;69.50;;;;;;5118605;28;20024;-64
2023/09/06 08:24:25;;;;;;;8.20;3.72;;;28.10;67.90;;;;;;5107140;28;20092;-67
2023/09/06 08:26:50;;;;;;;5.95;4.13;;;28.40;67.50;;;;;;5105017;28;20020;-64
2023/09/06 08:29:16;;;;;;;5.10;4.00;;;28.60;67.10;;;;;;5103949;28;20035;-65
2023/09/06 08:31:42;;;;;;;4.53;4.13;;;28.60;65.80;;;;;;5103881;28;20125;-64
2023/09/06 08:34:11;;;;;;;8.13;4.40;;;27.70;66.50;;;;;;5121428;28;20021;-64
2023/09/06 08:36:37;;;;;;;9.60;3.70;;;27.90;68.00;;;;;;5100611;28;20030;-68
2023/09/06 08:39:03;;;;;;;6.57;4.00;;;28.50;67.30;;;;;;5118040;28;20350;-64
2023/09/06 08:41:31;;;;;;;4.25;3.67;;;28.80;66.10;;;;;;5118570;28;20019;-64
2023/09/06 08:44:03;;;;;;;5.00;3.92;;;28.90;64.60;;;;;;5118592;28;20102;-63
2023/09/06 08:46:30;;;;;;;10.38;4.60;;;28.70;65.90;;;;;;5099436;28;20372;-64
2023/09/06 08:48:57;;;;;;;9.40;3.92;;;28.70;65.10;;;;;;5117200;28;20382;-64
2023/09/06 08:51:24;;;;;;;4.05;3.70;;;28.90;65.30;;;;;;5117100;28;20043;-64
2023/09/06 08:53:52;;;;;;;4.45;3.90;;;29.40;64.00;;;;;;5117258;28;20012;-68
2023/09/06 08:56:19;;;;;;;10.38;5.05;;;29.80;62.80;;;;;;5117128;28;20030;-64
2023/09/06 08:58:44;;;;;;;12.23;4.43;;;30.40;63.00;;;;;;5117088;28;20027;-64
2023/09/06 09:01:10;;;;;;;12.45;4.13;;;30.80;61.60;;;;;;5117104;28;20046;-64
2023/09/06 09:03:36;;;;;;;4.97;3.75;;;31.10;60.40;;;;;;5117076;28;20024;-64
2023/09/06 09:06:08;;;;;;;9.60;4.05;;;31.10;59.70;;;;;;5098767;28;20061;-64
2023/09/06 09:08:34;;;;;;;4.93;3.58;;;30.80;59.70;;;;;;5117133;28;20027;-64
2023/09/06 09:11:26;;;;;;;6.50;3.78;;;31.20;59.20;;;;;;5098643;28;20019;-64
2023/09/06 09:13:52;;;;;;;6.20;3.70;;;31.70;59.00;;;;;;5111959;28;20035;-64
2023/09/06 09:16:18;;;;;;;8.98;2.95;;;32.10;58.00;;;;;;5116768;28;20436;-64
2023/09/06 09:18:44;;;;;;;4.60;2.92;;;31.90;56.60;;;;;;5116724;28;20449;-64
2023/09/06 09:21:12;;;;;;;5.10;3.05;;;32.40;56.20;;;;;;5116909;28;20026;-64
2023/09/06 09:23:55;;;;;;;6.03;2.78;;;32.50;56.10;;;;;;5115853;28;20099;-65
2023/09/06 09:26:22;;;;;;;6.07;2.63;;;32.90;55.50;;;;;;5116662;28;20028;-64
2023/09/06 09:28:48;;;;;;;4.20;2.08;;;32.90;55.00;;;;;;5116457;28;20030;-64
2023/09/06 09:31:15;;;;;;;3.45;2.15;;;32.60;53.40;;;;;;5098083;28;20077;-64
2023/09/06 09:33:44;;;;;;;5.13;2.15;;;31.90;53.40;;;;;;5116090;28;20019;-65
2023/09/06 09:36:13;;;;;;;6.75;2.40;;;31.90;53.60;;;;;;5098111;28;20020;-64
2023/09/06 09:38:47;;;;;;;4.80;1.92;;;32.00;53.60;;;;;;5116471;28;20060;-64
2023/09/06 09:41:14;;;;;;;4.43;2.20;;;32.00;53.50;;;;;;5116553;28;20023;-64
2023/09/06 09:43:40;;;;;;;2.78;2.25;;;31.80;53.90;;;;;;5116182;28;20024;-64
2023/09/06 09:46:06;;;;;;;4.90;2.10;;;31.90;53.20;;;;;;5098004;28;20445;-64
2023/09/06 09:48:32;;;;;;;4.45;2.10;;;32.30;53.40;;;;;;5116111;28;20024;-64
2023/09/06 09:51:04;;;;;;;3.67;2.05;;;32.40;52.00;;;;;;5097700;28;20080;-64
2023/09/06 09:53:32;;;;;;;5.60;2.40;;;32.80;51.90;;;;;;5098157;28;20016;-65
2023/09/06 09:56:04;;;;;;;4.97;2.07;;;32.60;51.50;;;;;;5097969;28;20525;-65
2023/09/06 09:58:34;;;;;;;7.00;1.60;;;32.60;50.70;;;;;;5097742;28;20257;-65
2023/09/06 10:01:01;;;;;;;2.08;1.80;;;32.00;50.70;;;;;;5116018;28;20129;-64
2023/09/06 10:03:27;;;;;;;2.10;1.92;;;32.10;51.20;;;;;;5115932;28;20028;-64
2023/09/06 10:05:53;;;;;;;2.47;1.70;;;32.80;50.30;;;;;;5115698;28;20019;-65
2023/09/06 10:08:21;;;;;;;2.55;1.88;;;32.90;49.20;;;;;;5115597;28;20461;-64
2023/09/06 10:10:47;;;;;;;1.80;1.70;;;32.90;48.80;;;;;;5115809;28;20045;-64
2023/09/06 10:13:14;;;;;;;1.92;1.83;;;32.80;49.60;;;;;;5115421;28;20020;-64
2023/09/06 10:15:43;;;;;;;1.87;1.73;;;33.30;49.10;;;;;;5115300;28;20031;-64
2023/09/06 10:18:08;;;;;;;;;;;32.70;48.30;;;;;;5115900;28;20011;-64
2023/09/06 10:20:35;;;;;;;3.22;1.90;;;32.00;49.00;;;;;;5115032;28;19911;-65
2023/09/06 10:23:01;;;;;;;7.20;1.73;;;31.90;49.30;;;;;;5096955;28;20023;-64
2023/09/06 10:25:27;;;;;;;2.22;1.60;;;32.00;49.70;;;;;;5115231;28;20065;-64
2023/09/06 10:27:55;;;;;;;3.38;2.10;;;32.30;49.00;;;;;;5115179;28;20023;-64
2023/09/06 10:30:28;;;;;;;3.22;2.08;;;31.60;48.50;;;;;;5096971;28;20032;-64
2023/09/06 10:32:54;;;;;;;6.03;1.73;;;31.20;49.50;;;;;;5115546;28;20087;-64
2023/09/06 10:35:24;;;;;;;2.65;1.77;;;31.90;49.30;;;;;;5096959;28;20027;-64
2023/09/06 10:38:05;;;;;;;2.40;1.52;;;32.70;48.30;;;;;;5096741;28;20026;-64
2023/09/06 10:40:49;;;;;;;4.88;1.85;;;33.20;46.90;;;;;;5115468;28;20030;-64
2023/09/06 10:43:29;;;;;;;1.95;1.40;;;33.90;46.20;;;;;;5114988;28;20066;-64
2023/09/06 10:45:58;;;;;;;1.52;1.40;;;33.10;46.20;;;;;;5096667;28;20020;-64
2023/09/06 10:48:25;;;;;;;1.42;1.40;;;32.90;46.60;;;;;;5115004;28;20028;-64
2023/09/06 10:51:12;;;;;;;2.10;1.50;;;33.30;45.60;;;;;;5096960;28;20099;-65
2023/09/06 10:53:40;;;;;;;9.05;1.67;;;33.60;45.20;;;;;;5114996;28;20023;-64
2023/09/06 10:56:07;;;;;;;4.70;1.45;;;33.90;45.00;;;;;;5097194;28;20156;-64
2023/09/06 10:58:37;;;;;;;2.63;1.60;;;33.70;45.10;;;;;;5114427;28;20027;-65
2023/09/06 11:01:12;;;;;;;3.13;1.75;;;34.00;45.20;;;;;;5096597;28;20525;-65
2023/09/06 11:03:41;;;;;;;3.20;1.75;;;34.00;44.70;;;;;;5114607;28;20096;-64
2023/09/06 11:06:09;;;;;;;6.72;1.83;;;33.90;44.40;;;;;;5114969;28;20403;-65
2023/09/06 11:08:34;;;;;;;2.30;1.63;;;33.60;44.40;;;;;;5114703;28;20042;-64
2023/09/06 11:11:06;;;;;;;4.57;1.60;;;33.90;44.90;;;;;;5096347;28;20016;-65
2023/09/06 11:13:33;;;;;;;2.10;1.65;;;34.00;44.00;;;;;;5096786;28;20019;-64
2023/09/06 11:16:03;;;;;;;4.13;1.90;;;33.60;44.80;;;;;;5114403;28;20037;-64
2023/09/06 11:18:32;;;;;;;1.92;1.83;;;32.80;45.60;;;;;;5114336;28;20039;-65
2023/09/06 11:20:59;;;;;;;2.50;1.80;;;32.70;45.90;;;;;;5114304;28;20115;-64
2023/09/06 11:23:26;;;;;;;6.07;1.92;;;33.00;46.10;;;;;;5114249;28;20027;-64
2023/09/06 11:25:59;;;;;;;2.17;1.83;;;33.40;45.30;;;;;;5095871;28;20114;-64
2023/09/06 11:28:29;;;;;;;5.82;1.83;;;34.00;45.00;;;;;;5114495;28;20026;-64
2023/09/06 11:30:55;;;;;;;2.60;2.10;;;34.60;44.10;;;;;;5114367;28;20461;-64
2023/09/06 11:33:31;;;;;;;2.47;1.42;;;34.40;43.40;;;;;;5095711;28;20016;-64
2023/09/06 11:35:58;;;;;;;1.90;1.80;;;34.40;43.50;;;;;;5114190;28;20054;-64
2023/09/06 11:38:30;;;;;;;2.83;1.80;;;33.60;44.40;;;;;;5095967;28;20023;-64
2023/09/06 11:40:58;;;;;;;1.92;1.75;;;33.20;44.50;;;;;;5114143;28;20050;-64
2023/09/06 11:43:26;;;;;;;3.03;1.87;;;32.60;45.20;;;;;;5114441;28;20016;-64
2023/09/06 11:45:54;;;;;;;3.20;1.92;;;33.00;45.20;;;;;;5118160;28;20023;-64
2023/09/06 11:48:27;;;;;;;5.82;2.10;;;33.40;44.80;;;;;;5102579;28;20019;-64
2023/09/06 11:51:01;;;;;;;3.20;1.48;;;32.80;45.30;;;;;;5120742;28;20134;-64
2023/09/06 11:53:27;;;;;;;2.15;2.03;;;33.60;44.90;;;;;;5102855;28;20069;-64
2023/09/06 11:55:59;;;;;;;3.25;1.70;;;33.90;44.70;;;;;;5102594;28;20398;-64
2023/09/06 11:58:27;;;;;;;4.03;2.00;;;33.90;44.20;;;;;;5121123;28;20058;-64
2023/09/06 12:00:56;;;;;;;2.00;1.90;;;33.80;44.40;;;;;;5120902;28;20072;-64
2023/09/06 12:03:29;;;;;;;1.85;1.75;;;33.20;44.80;;;;;;5120799;28;20027;-64
2023/09/06 12:05:56;;;;;;;2.83;1.58;;;33.60;44.70;;;;;;5121122;28;20441;-64
2023/09/06 12:08:23;;;;;;;3.15;1.45;;;34.10;44.80;;;;;;5120750;28;20024;-65
2023/09/06 12:11:05;;;;;;;1.85;1.73;;;34.20;43.60;;;;;;5121098;28;20449;-63
2023/09/06 12:13:37;;;;;;;2.88;1.85;;;33.80;44.80;;;;;;5102457;28;20031;-62
2023/09/06 12:16:04;;;;;;;3.75;2.08;;;33.40;45.50;;;;;;5120878;28;20019;-62
2023/09/06 12:18:30;;;;;;;3.73;1.90;;;33.40;47.20;;;;;;5120418;28;20024;-62
2023/09/06 12:20:56;;;;;;;3.88;2.15;;;33.50;46.00;;;;;;5102314;28;20024;-62
2023/09/06 12:23:22;;;;;;;2.72;1.58;;;33.70;46.80;;;;;;5102312;28;20042;-64
2023/09/06 12:25:48;;;;;;;2.17;1.88;;;34.30;44.30;;;;;;5102282;28;20059;-64
2023/09/06 12:28:14;;;;;;;3.03;1.73;;;34.00;43.80;;;;;;5120682;28;20028;-64
2023/09/06 12:30:40;;;;;;;2.65;1.67;;;34.10;43.90;;;;;;5120620;28;20053;-64
2023/09/06 12:33:05;;;;;;;2.85;1.63;;;33.80;43.80;;;;;;5120657;28;20030;-64
2023/09/06 12:35:38;;;;;;;4.43;1.88;;;33.60;44.70;;;;;;5120297;28;20020;-64
2023/09/06 12:38:06;;;;;;;4.22;1.90;;;33.20;45.00;;;;;;5120575;28;20024;-64
2023/09/06 12:40:32;;;;;;;9.80;2.53;;;33.30;44.70;;;;;;5120477;28;20081;-64
2023/09/06 12:42:58;;;;;;;4.60;1.90;;;34.30;44.30;;;;;;5120570;28;20049;-64
2023/09/06 12:45:26;;;;;;;4.43;2.15;;;35.20;43.50;;;;;;5120568;28;20024;-65
2023/09/06 12:47:53;;;;;;;10.80;1.90;;;34.70;43.60;;;;;;5102462;28;20046;-64
2023/09/06 12:50:19;;;;;;;3.33;2.00;;;35.10;42.50;;;;;;5120585;28;20023;-64
2023/09/06 12:52:46;;;;;;;2.15;2.00;;;34.70;43.00;;;;;;5120819;28;20074;-64